Flight Track Log - Related Links

Times and Time Zones

All times are in EDT time to prevent confusion due to time zone crossing. See the N2317S flight status page for this flight to view local times or setup timezone preferences in your user account.

Time Position Orientation Groundspeed Altitude Reporting Facility
EDT Latitude Longitude Course Direction KTS MPH feet Rate Location/Type
Fri 08:47:00 AM 44.4719 -73.1533 304° West  Level Estimated
Fri 08:48:00 AM 44.4754 -73.1608 304° West  Level FlightAware Approximate
Fri 08:49:00 AM 44.4790 -73.1683 304° West  Level FlightAware Approximate
Fri 08:50:00 AM 44.4825 -73.1758 304° West  Level FlightAware Approximate
Fri 08:51:00 AM 44.4861 -73.1833 304° West  Level FlightAware Approximate
Fri 08:52:00 AM 44.4825 -73.1758 312° West  Level Estimated
Fri 08:53:00 AM 44.4866 -73.1828 309° West  Level FlightAware Approximate
Fri 08:54:00 AM 44.4906 -73.1898 309° West  Level FlightAware Approximate
Fri 08:55:00 AM 44.4947 -73.1968 309° West  Level FlightAware Approximate
Fri 08:56:00 AM 44.4987 -73.2038 309° West  Level FlightAware Approximate
Fri 08:57:00 AM 44.5028 -73.2108 309° West  Level FlightAware Approximate
Fri 08:58:00 AM 44.5068 -73.2178 309° West  Level FlightAware Approximate
Fri 08:59:00 AM 44.5108 -73.2248 309° West  Level FlightAware Approximate
Fri 09:00:00 AM 44.5149 -73.2318 309° West  Level FlightAware Approximate
Fri 09:01:00 AM 44.5189 -73.2388 309° West  Level FlightAware Approximate
Fri 09:02:00 AM 44.5230 -73.2458 309° West  Level FlightAware Approximate
Fri 09:03:00 AM 44.5270 -73.2528 309° West  Level FlightAware Approximate
Fri 09:04:00 AM 44.5311 -73.2598 309° West  Level FlightAware Approximate
Fri 09:05:00 AM 44.5351 -73.2668 309° West  Level FlightAware Approximate
Fri 09:06:00 AM 44.5391 -73.2738 309° West  Level FlightAware Approximate
Fri 09:07:00 AM 44.5432 -73.2808 309° West  Level FlightAware Approximate
Fri 09:08:00 AM 44.5472 -73.2878 309° West  Level FlightAware Approximate
Fri 09:09:00 AM 44.5513 -73.2948 309° West  Level FlightAware Approximate
Fri 09:10:00 AM 44.5553 -73.3018 309° West  Level FlightAware Approximate
Fri 09:11:00 AM 44.5593 -73.3089 309° West  Level FlightAware Approximate
Fri 09:12:00 AM 44.5634 -73.3159 309° West  Level FlightAware Approximate
Fri 09:13:00 AM 44.5674 -73.3229 309° West  Level FlightAware Approximate
Fri 09:14:00 AM 44.5714 -73.3299 309° West  Level FlightAware Approximate
Fri 09:15:00 AM 44.5755 -73.3369 309° West  Level FlightAware Approximate
Fri 09:16:00 AM 44.5795 -73.3439 309° West  Level FlightAware Approximate
Fri 09:17:00 AM 44.5836 -73.3510 309° West  Level FlightAware Approximate
Fri 09:18:00 AM 44.5876 -73.3580 309° West  Level FlightAware Approximate
Fri 09:19:00 AM 44.5836 -73.3509 129° Southeast  Level Estimated
Fri 09:20:00 AM 44.5810 -73.3427 114° Southeast  Level FlightAware Approximate
Fri 09:21:00 AM 44.5836 -73.3509 294° West  Level FlightAware Approximate
Fri 09:22:00 AM 44.5810 -73.3427 114° Southeast  Level FlightAware Approximate
Fri 09:23:00 AM 44.5836 -73.3509 294° West  Level FlightAware Approximate
Fri 09:24:00 AM 44.5810 -73.3427 114° Southeast  Level FlightAware Approximate
Fri 09:25:00 AM 44.5836 -73.3509 294° West  Level FlightAware Approximate
Fri 09:26:00 AM 44.5810 -73.3427 114° Southeast  Level FlightAware Approximate
Fri 09:27:00 AM 44.5836 -73.3509 294° West  Level FlightAware Approximate
Fri 09:28:00 AM 44.5810 -73.3427 114° Southeast  Level FlightAware Approximate
Fri 09:29:00 AM 44.5836 -73.3509 294° West  Level FlightAware Approximate
Fri 09:30:00 AM 44.5810 -73.3427 114° Southeast  Level FlightAware Approximate
Fri 09:31:00 AM 44.5836 -73.3509 294° West  Level FlightAware Approximate
Fri 09:32:00 AM 44.5810 -73.3427 114° Southeast  Level FlightAware Approximate
Fri 09:33:00 AM 44.5836 -73.3509 294° West  Level FlightAware Approximate
Fri 09:34:00 AM 44.5810 -73.3427 114° Southeast  Level FlightAware Approximate
Fri 09:35:00 AM 44.5836 -73.3509 294° West  Level FlightAware Approximate
Fri 09:36:00 AM 44.5797 -73.3442 131° Southeast  Level FlightAware Approximate
Fri 09:37:00 AM 44.5755 -73.3374 131° Southeast  Level FlightAware Approximate
Fri 09:38:00 AM 44.5713 -73.3306 131° Southeast  Level FlightAware Approximate
Fri 09:39:00 AM 44.5670 -73.3239 131° Southeast  Level FlightAware Approximate
Fri 09:40:00 AM 44.5628 -73.3171 131° Southeast  Level FlightAware Approximate
Fri 09:41:00 AM 44.5586 -73.3103 131° Southeast  Level FlightAware Approximate
Fri 09:42:00 AM 44.5543 -73.3035 131° Southeast  Level FlightAware Approximate
Fri 09:43:00 AM 44.5501 -73.2967 131° Southeast  Level FlightAware Approximate
Fri 09:44:00 AM 44.5458 -73.2899 131° Southeast  Level FlightAware Approximate
Fri 09:45:00 AM 44.5416 -73.2832 131° Southeast  Level FlightAware Approximate
Fri 09:46:00 AM 44.5374 -73.2764 131° Southeast  Level FlightAware Approximate
Fri 09:47:00 AM 44.5331 -73.2696 131° Southeast  Level FlightAware Approximate
Fri 09:48:00 AM 44.5289 -73.2628 131° Southeast  Level FlightAware Approximate
Fri 09:49:00 AM 44.5246 -73.2561 131° Southeast  Level FlightAware Approximate
Fri 09:50:00 AM 44.5204 -73.2493 131° Southeast  Level FlightAware Approximate
Fri 09:51:00 AM 44.5162 -73.2425 131° Southeast  Level FlightAware Approximate
Fri 09:52:00 AM 44.5119 -73.2357 131° Southeast  Level FlightAware Approximate
Fri 09:53:00 AM 44.5077 -73.2290 131° Southeast  Level FlightAware Approximate
Fri 09:54:00 AM 44.5034 -73.2222 131° Southeast  Level FlightAware Approximate
Fri 09:55:00 AM 44.4993 -73.2153 125° Southeast  Level FlightAware Approximate
Fri 09:56:00 AM 44.4956 -73.2079 125° Southeast  Level FlightAware Approximate
Fri 09:57:00 AM 44.4919 -73.2005 125° Southeast  Level FlightAware Approximate
Fri 09:58:00 AM 44.4883 -73.1932 125° Southeast  Level FlightAware Approximate
Fri 09:59:00 AM 44.4846 -73.1858 125° Southeast  Level FlightAware Approximate
Fri 10:00:00 AM 44.4809 -73.1784 125° Southeast  Level FlightAware Approximate
Fri 10:01:00 AM 44.4772 -73.1710 125° Southeast  Level FlightAware Approximate
Fri 10:02:00 AM 44.4735 -73.1637 125° Southeast  Level FlightAware Approximate
Fri 10:03:00 AM 44.4698 -73.1563 125° Southeast  Level FlightAware Approximate
Fri 10:04:00 AM 44.4667 -73.1500 125° Southeast  Level FlightAware Approximate
Fri 10:05:00 AM 44.4719 -73.1533 125° Southeast  Level Estimated
Fri 10:06:00 AM 44.4667 -73.1500 125° Southeast  Level FlightAware Approximate
Fri 10:07:00 AM 44.4719 -73.1533 125° Southeast  Level Estimated
Fri 10:08:00 AM 44.4667 -73.1500 125° Southeast  Level FlightAware Approximate
Fri 10:09:00 AM 44.4719 -73.1533 125° Southeast  Level Estimated
Fri 10:10:00 AM 44.4667 -73.1500 125° Southeast  Level FlightAware Approximate
Fri 10:11:00 AM 44.4719 -73.1533 125° Southeast  Level Estimated
Fri 10:12:00 AM 44.4667 -73.1500 125° Southeast  Level FlightAware Approximate
Fri 10:13:00 AM 44.4719 -73.1533 125° Southeast  Level Estimated
Fri 10:14:00 AM 44.4667 -73.1500 125° Southeast  Level FlightAware Approximate
Fri 10:15:00 AM 44.4719 -73.1533 125° Southeast  Level Estimated
Fri 10:16:00 AM 44.4667 -73.1500 125° Southeast  Level FlightAware Approximate
Fri 10:17:00 AM 44.4719 -73.1533 125° Southeast  Level Estimated
Fri 10:18:00 AM 44.4667 -73.1500 125° Southeast  Level FlightAware Approximate
Fri 10:19:00 AM 44.4719 -73.1533 125° Southeast  Level Estimated
Fri 10:20:00 AM 44.4667 -73.1500 125° Southeast  Level FlightAware Approximate
Fri 10:21:00 AM 44.4719 -73.1533 125° Southeast  Level Estimated
Fri 10:22:00 AM 44.4667 -73.1500 125° Southeast  Level FlightAware Approximate
Fri 10:23:00 AM 44.4719 -73.1533 125° Southeast  Level Estimated
Fri 10:24:00 AM 44.4667 -73.1500 125° Southeast  Level FlightAware Approximate
Fri 10:25:00 AM 44.4719 -73.1533 125° Southeast  Level Estimated
Fri 10:26:00 AM 44.4667 -73.1500 125° Southeast  Level FlightAware Approximate

Login

Don't have an account? Register now (free) for customized features, flight alerts, and more!